Terminal Aerodrome Forecast
Issued by NWS

Home | Current Version | Previous Version | Graphics & Text | Print | Product List | Glossary On
Versions: 1 2 3 4 5 6 7 8 9 10 11 12 13 14 15 16 17 18 19
000
FTUS43 KMPX 241300 AAA
TAFAXN
TAF AMD
KAXN 241324Z 2413/2512 14009KT P6SM BKN005 OVC050
     FM241500 15011KT P6SM BKN015 BKN150
     FM241700 17011G18KT P6SM SCT025 BKN150
     FM242100 21013G21KT P6SM SCT035 SCT150
     FM250100 24008KT P6SM FEW200=

USA.gov is the U.S. government's official web portal to all federal, state and local government web resources and services.